Terminal Aerodrome Forecast
Issued by NWS

Current Version | Previous Version | Graphics & Text | Print | Product List | Glossary On
Versions: 1 2 3 4 5 6 7 8 9 10 11 12 13 14 15 16 17 18 19
209
FTUS41 KPBZ 212255 AAA
TAFHLG
TAF AMD
KHLG 212255Z 2123/2218 26006KT P6SM BKN050
      TEMPO 2123/2124 4SM -SHRA
     FM221500 23007KT P6SM BKN050=

USA.gov is the U.S. government's official web portal to all federal, state and local government web resources and services.